.
WxDataArchive / Data Records for 2015-06-07
2015-06-06 June 2015 2015-06-08

Data Records for Sunday, 07 June 2015

Time	Temp	Chill	HIndex	Humid	Dewpt	 Wind 	HiWind	WindDir	Rain 	Barom
-----	----	-----	------	-----	-----	------	------	-------	-----	-----
00:00	61.2	61.2	61.2	74	52.8	1	3	68	0.00	30.003 
00:05	61.0	61.0	61.0	74	52.6	1	3	68	0.00	30.003 
00:10	60.9	60.9	60.9	74	52.6	1	3	68	0.00	30.003 
00:15	60.7	60.7	60.7	75	52.7	1	5	68	0.00	29.996 
00:20	60.5	60.5	60.5	75	52.5	1	2	68	0.00	29.996 
00:25	60.4	60.4	60.4	75	52.4	1	3	68	0.00	29.996 
00:30	60.2	60.2	60.2	76	52.6	0	2	68	0.00	29.998 
00:35	60.1	60.1	60.1	76	52.5	1	3	68	0.00	29.998 
00:40	59.9	59.9	59.9	77	52.7	0	1	68	0.00	29.998 
00:45	59.8	59.8	59.8	77	52.6	0	1	68	0.00	30.000 
00:50	59.6	59.6	59.6	77	52.4	0	1	68	0.00	30.000 
00:55	59.5	59.5	59.5	78	52.6	0	2	68	0.00	30.000 
01:00	59.3	59.3	59.3	78	52.4	0	2	68	0.00	29.992 
01:05	59.2	59.2	59.2	79	52.7	0	3	68	0.00	29.992 
01:10	59.0	59.0	59.0	79	52.5	0	2	68	0.00	29.992 
01:15	59.0	59.0	59.0	79	52.5	0	2	68	0.00	29.987 
01:20	58.9	58.9	58.9	80	52.7	0	2	68	0.00	29.987 
01:25	58.7	58.7	58.7	80	52.5	0	1	68	0.00	29.987 
01:30	58.7	58.7	58.7	80	52.5	0	2	68	0.00	29.982 
01:35	58.6	58.6	58.6	81	52.8	0	2	68	0.00	29.982 
01:40	58.4	58.4	58.4	81	52.6	0	1	68	0.00	29.982 
01:45	58.3	58.3	58.3	81	52.5	0	1	68	0.00	29.986 
01:50	58.1	58.1	58.1	81	52.3	0	1	68	0.00	29.986 
01:55	58.0	58.0	58.0	81	52.2	0	1	68	0.00	29.986 
02:00	57.8	57.8	57.8	82	52.3	0	1	68	0.00	29.989 
02:05	57.6	57.6	57.6	82	52.1	0	1	68	0.00	29.989 
02:10	57.5	57.5	57.5	82	52.0	0	1	68	0.00	29.989 
02:15	57.5	57.5	57.5	82	52.0	0	0	---	0.00	29.993 
02:20	57.3	57.3	57.3	83	52.2	0	0	---	0.00	29.993 
02:25	57.2	57.2	57.2	83	52.1	0	0	---	0.00	29.993 
02:30	57.0	57.0	57.0	83	51.9	0	1	68	0.00	29.989 
02:35	56.9	56.9	56.9	84	52.1	0	0	---	0.00	29.989 
02:40	56.7	56.7	56.7	84	51.9	0	0	---	0.00	29.989 
02:45	56.7	56.7	56.7	84	51.9	0	0	---	0.00	29.984 
02:50	56.6	56.6	56.6	84	51.8	0	0	---	0.00	29.984 
02:55	56.5	56.5	56.5	84	51.7	0	0	---	0.00	29.984 
03:00	56.3	56.3	56.3	85	51.8	0	0	---	0.00	29.982 
03:05	56.3	56.3	56.3	85	51.8	0	1	68	0.00	29.982 
03:10	56.3	56.3	56.3	85	51.8	0	2	68	0.00	29.982 
03:15	56.3	56.3	56.3	85	51.8	0	1	68	0.00	29.976 
03:20	56.3	56.3	56.3	85	51.8	0	1	68	0.00	29.976 
03:25	56.2	56.2	56.2	85	51.7	0	1	68	0.00	29.976 
03:30	56.2	56.2	56.2	84	51.4	0	2	68	0.00	29.972 
03:35	56.2	56.2	56.2	84	51.4	0	1	68	0.00	29.972 
03:40	56.2	56.2	56.2	84	51.4	0	1	68	0.00	29.972 
03:45	56.2	56.2	56.2	84	51.4	0	1	68	0.00	29.963 
03:50	56.0	56.0	56.0	84	51.2	0	1	68	0.00	29.963 
03:55	55.9	55.9	55.9	85	51.5	0	1	68	0.00	29.963 
04:00	55.9	55.9	55.9	85	51.5	0	1	68	0.00	29.960 
04:05	55.7	55.7	55.7	85	51.3	0	1	68	0.00	29.960 
04:10	55.7	55.7	55.7	85	51.3	0	1	68	0.00	29.960 
04:15	55.6	55.6	55.6	85	51.2	0	0	---	0.00	29.952 
04:20	55.4	55.4	55.4	85	51.0	0	0	---	0.00	29.952 
04:25	55.3	55.3	55.3	86	51.2	0	0	---	0.00	29.952 
04:30	55.3	55.3	55.3	86	51.2	0	0	---	0.00	29.950 
04:35	55.1	55.1	55.1	86	51.0	0	0	---	0.00	29.950 
04:40	55.1	55.1	55.1	86	51.0	0	0	---	0.00	29.950 
04:45	55.0	55.0	55.0	86	50.9	0	0	---	0.00	29.949 
04:50	55.0	55.0	55.0	86	50.9	0	0	---	0.00	29.949 
04:55	54.8	54.8	54.8	86	50.7	0	0	---	0.00	29.949 
05:00	54.7	54.7	54.7	87	50.9	0	0	---	0.00	29.944 
05:05	54.7	54.7	54.7	87	50.9	0	1	68	0.00	29.944 
05:10	54.7	54.7	54.7	86	50.6	0	2	68	0.00	29.944 
05:15	54.8	54.8	54.8	86	50.7	0	0	---	0.00	29.947 
05:20	54.8	54.8	54.8	86	50.7	0	0	---	0.00	29.947 
05:25	54.8	54.8	54.8	86	50.7	0	0	---	0.00	29.947 
05:30	54.8	54.8	54.8	86	50.7	0	1	68	0.00	29.936 
05:35	54.8	54.8	54.8	85	50.4	0	0	---	0.00	29.936 
05:40	54.7	54.7	54.7	85	50.3	0	0	---	0.00	29.936 
05:45	54.7	54.7	54.7	86	50.6	0	0	---	0.00	29.935 
05:50	54.5	54.5	54.5	86	50.4	0	0	---	0.00	29.935 
05:55	54.5	54.5	54.5	86	50.4	0	0	---	0.00	29.935 
06:00	54.5	54.5	54.5	86	50.4	0	0	---	0.00	29.935 
06:05	54.4	54.4	54.4	86	50.3	0	0	---	0.00	29.935 
06:10	54.4	54.4	54.4	86	50.3	0	0	---	0.00	29.935 
06:15	54.2	54.2	54.2	86	50.1	0	0	---	0.00	29.936 
06:20	54.2	54.2	54.2	86	50.1	0	0	---	0.00	29.936 
06:25	54.2	54.2	54.2	86	50.1	0	0	---	0.00	29.936 
06:30	54.2	54.2	54.2	87	50.4	0	0	---	0.00	29.938 
06:35	54.2	54.2	54.2	87	50.4	0	0	---	0.00	29.938 
06:40	54.2	54.2	54.2	87	50.4	0	0	---	0.00	29.938 
06:45	54.2	54.2	54.2	87	50.4	0	0	---	0.00	29.937 
06:50	54.4	54.4	54.4	88	50.9	0	0	---	0.00	29.937 
06:55	54.5	54.5	54.5	88	51.0	0	0	---	0.00	29.937 
07:00	54.7	54.7	54.7	88	51.2	0	0	---	0.00	29.937 
07:05	54.8	54.8	54.8	87	51.0	0	0	---	0.00	29.937 
07:10	55.0	55.0	55.0	87	51.2	0	0	---	0.00	29.937 
07:15	55.3	55.3	55.3	87	51.5	0	0	---	0.00	29.938 
07:20	55.7	55.7	55.7	87	51.9	0	0	---	0.00	29.938 
07:25	56.0	56.0	56.0	87	52.2	0	0	---	0.00	29.938 
07:30	56.6	56.6	56.6	86	52.5	0	1	68	0.00	29.935 
07:35	57.3	57.3	57.3	85	52.8	0	0	---	0.00	29.935 
07:40	58.1	58.1	58.1	84	53.3	0	1	68	0.00	29.935 
07:45	58.7	58.7	58.7	83	53.5	0	1	68	0.00	29.927 
07:50	59.3	59.3	59.3	83	54.1	0	1	68	0.00	29.927 
07:55	60.1	60.1	60.1	82	54.6	0	1	68	0.00	29.927 
08:00	60.9	60.9	60.9	81	55.0	0	0	---	0.00	29.916 
08:05	61.5	61.5	61.5	81	55.6	0	0	---	0.00	29.916 
08:10	62.3	62.3	62.3	80	56.0	0	2	68	0.00	29.916 
08:15	62.9	62.9	62.9	80	56.6	0	2	68	0.00	29.916 
08:20	63.2	63.2	63.2	80	56.9	0	0	---	0.00	29.916 
08:25	63.9	63.9	63.9	81	57.9	0	3	68	0.00	29.916 
08:30	64.5	64.5	64.5	81	58.5	0	1	68	0.00	29.910 
08:35	65.3	65.3	65.3	82	59.7	0	2	68	0.00	29.910 
08:40	65.8	65.8	65.8	81	59.8	0	3	68	0.00	29.910 
08:45	66.3	66.3	66.3	81	60.3	0	3	68	0.00	29.898 
08:50	66.8	66.8	66.8	80	60.4	0	2	68	0.00	29.898 
08:55	67.1	67.1	67.1	80	60.7	0	3	68	0.00	29.898 
09:00	67.4	67.4	67.4	80	61.0	0	2	68	0.00	29.889 
09:05	67.8	67.8	67.8	79	61.0	0	1	68	0.00	29.889 
09:10	68.3	68.3	68.3	79	61.5	0	1	68	0.00	29.889 
09:15	68.6	68.6	68.6	78	61.5	0	3	68	0.00	29.880 
09:20	68.9	68.9	68.9	77	61.4	0	3	68	0.00	29.880 
09:25	69.1	69.1	69.1	77	61.6	0	2	68	0.00	29.880 
09:30	69.4	69.4	69.4	77	61.9	0	2	68	0.00	29.878 
09:35	69.8	69.8	69.8	76	61.9	0	1	68	0.00	29.878 
09:40	70.1	70.1	70.1	75	61.8	0	2	270	0.00	29.878 
09:45	70.4	70.4	70.4	75	62.1	0	1	270	0.00	29.875 
09:50	70.9	70.9	70.9	74	62.2	0	1	270	0.00	29.875 
09:55	71.3	71.3	71.3	73	62.2	1	4	112	0.00	29.875 
10:00	71.6	71.6	71.6	73	62.5	0	3	112	0.00	29.866 
10:05	72.1	72.1	72.1	74	63.3	0	2	248	0.00	29.866 
10:10	72.7	72.7	72.7	72	63.1	0	2	248	0.00	29.866 
10:15	73.2	73.2	73.2	71	63.2	1	4	338	0.00	29.861 
10:20	73.5	73.5	73.5	71	63.5	1	3	338	0.00	29.861 
10:25	73.7	73.7	73.7	70	63.3	1	3	292	0.00	29.861 
10:30	74.0	74.0	74.0	69	63.2	0	3	292	0.00	29.854 
10:35	74.4	74.4	74.4	68	63.1	1	5	90	0.00	29.854 
10:40	74.4	74.4	74.4	69	63.5	1	2	112	0.00	29.854 
10:45	74.4	74.4	74.4	69	63.5	1	3	112	0.00	29.853 
10:50	74.7	74.7	74.7	69	63.8	1	4	68	0.00	29.853 
10:55	74.9	74.9	74.9	69	64.0	1	4	270	0.00	29.853 
11:00	75.1	75.1	76.9	68	63.8	0	3	270	0.00	29.857 
11:05	75.3	75.3	77.1	68	64.0	0	1	270	0.00	29.857 
11:10	75.4	75.4	77.2	68	64.1	1	4	248	0.00	29.857 
11:15	75.6	75.6	77.4	68	64.3	1	3	248	0.00	29.854 
11:20	75.6	75.6	77.4	68	64.3	1	3	248	0.00	29.854 
11:25	75.6	75.6	77.4	67	63.9	1	5	270	0.00	29.854 
11:30	76.0	76.0	77.7	69	65.1	0	2	270	0.00	29.852 
11:35	76.3	76.3	78.0	68	64.9	1	3	270	0.00	29.852 
11:40	76.1	76.1	77.9	67	64.3	1	3	270	0.00	29.852 
11:45	76.0	76.0	77.8	67	64.2	1	3	270	0.00	29.847 
11:50	76.0	76.0	77.7	68	64.7	0	3	270	0.00	29.847 
11:55	76.1	76.1	77.8	69	65.2	0	4	270	0.00	29.847 
12:00	76.5	76.5	78.3	68	65.1	0	2	270	0.00	29.844 
12:05	76.8	76.8	78.6	68	65.4	0	2	270	0.00	29.844 
12:10	77.0	77.0	78.8	67	65.2	1	4	270	0.00	29.844 
12:15	77.2	77.2	79.0	66	64.9	1	6	270	0.00	29.847 
12:20	77.2	77.2	79.0	65	64.5	1	6	270	0.00	29.847 
12:25	77.2	77.2	79.0	65	64.5	2	5	270	0.00	29.847 
12:30	77.2	77.2	79.0	66	64.9	1	3	270	0.00	29.841 
12:35	77.2	77.2	79.0	66	64.9	1	4	270	0.00	29.841 
12:40	77.4	77.4	79.2	66	65.1	1	3	270	0.00	29.841 
12:45	77.4	77.4	79.2	66	65.1	1	3	270	0.00	29.837 
12:50	77.7	77.7	79.5	65	65.0	2	5	270	0.00	29.837 
12:55	78.3	78.3	80.2	64	65.1	1	3	270	0.00	29.837 
13:00	78.8	78.8	80.7	64	65.6	2	6	270	0.00	29.831 
13:05	79.0	79.0	80.9	63	65.3	2	5	248	0.00	29.831 
13:10	79.0	79.0	80.8	62	64.8	2	4	248	0.00	29.831 
13:15	78.8	78.8	80.7	63	65.1	2	5	270	0.00	29.832 
13:20	78.8	78.8	80.7	63	65.1	1	4	270	0.00	29.832 
13:25	78.6	78.6	80.4	63	64.9	1	3	270	0.00	29.832 
13:30	78.6	78.6	80.4	63	64.9	1	4	270	0.00	29.827 
13:35	78.6	78.6	80.5	64	65.4	1	3	292	0.00	29.827 
13:40	78.8	78.8	80.7	64	65.6	1	4	90	0.00	29.827 
13:45	79.0	79.0	80.9	63	65.3	1	4	270	0.00	29.818 
13:50	79.2	79.2	81.1	63	65.5	0	3	270	0.00	29.818 
13:55	79.2	79.2	81.2	64	65.9	1	4	270	0.00	29.818 
14:00	79.0	79.0	80.9	63	65.3	1	6	270	0.00	29.808 
14:05	78.8	78.8	80.7	64	65.6	1	5	292	0.00	29.808 
14:10	78.8	78.8	80.7	64	65.6	1	2	292	0.00	29.808 
14:15	78.8	78.8	80.8	65	66.0	1	4	315	0.00	29.809 
14:20	78.6	78.6	80.5	64	65.4	1	4	315	0.00	29.809 
14:25	78.6	78.6	80.6	65	65.8	1	7	292	0.00	29.809 
14:30	78.5	78.5	80.5	66	66.2	1	3	270	0.00	29.814 
14:35	78.3	78.3	80.2	66	66.0	1	2	270	0.00	29.814 
14:40	78.1	78.1	80.0	67	66.2	1	3	270	0.00	29.814 
14:45	77.9	77.9	79.9	69	66.9	1	5	292	0.00	29.817 
14:50	77.6	77.6	79.5	70	67.0	1	5	270	0.00	29.817 
14:55	77.0	77.0	78.7	73	67.7	1	3	270	0.00	29.817 
15:00	76.5	76.5	78.0	75	68.0	1	4	292	0.00	29.817 
15:05	76.1	76.1	77.4	76	68.0	2	5	292	0.00	29.817 
15:10	75.8	75.8	77.0	77	68.1	1	5	292	0.00	29.817 
15:15	75.3	75.3	76.1	79	68.3	0	3	292	0.01	29.787 
15:20	74.9	74.9	74.9	80	68.3	1	3	315	0.00	29.787 
15:25	74.6	74.6	74.6	80	68.0	0	3	315	0.00	29.787 
15:30	74.4	74.4	74.4	80	67.8	0	3	315	0.00	29.772 
15:35	74.2	74.2	74.2	80	67.6	1	3	315	0.00	29.772 
15:40	74.0	74.0	74.0	81	67.8	0	1	315	0.00	29.772 
15:45	73.9	73.9	73.9	81	67.7	0	3	315	0.00	29.767 
15:50	73.9	73.9	73.9	81	67.7	0	2	315	0.00	29.767 
15:55	73.9	73.9	73.9	81	67.7	0	3	315	0.00	29.767 
16:00	74.2	74.2	74.2	81	68.0	0	1	315	0.00	29.766 
16:05	74.6	74.6	74.6	80	68.0	0	1	315	0.00	29.766 
16:10	75.1	75.1	75.7	80	68.5	0	2	315	0.00	29.766 
16:15	75.4	75.4	76.2	79	68.4	0	2	315	0.00	29.786 
16:20	75.6	75.6	76.6	78	68.2	0	3	315	0.00	29.786 
16:25	75.8	75.8	77.0	77	68.1	1	3	270	0.00	29.786 
16:30	76.1	76.1	77.4	77	68.3	1	4	270	0.00	29.783 
16:35	76.5	76.5	77.9	77	68.7	1	3	292	0.00	29.783 
16:40	76.7	76.7	78.2	77	68.9	0	2	292	0.00	29.783 
16:45	76.7	76.7	78.2	77	68.9	1	2	292	0.00	29.772 
16:50	76.8	76.8	78.4	76	68.6	0	2	292	0.00	29.772 
16:55	77.0	77.0	78.7	75	68.5	0	2	292	0.00	29.772 
17:00	77.4	77.4	79.3	75	68.8	0	3	292	0.00	29.761 
17:05	77.6	77.6	79.6	74	68.6	0	3	292	0.00	29.761 
17:10	77.9	77.9	80.0	74	68.9	0	1	292	0.00	29.761 
17:15	77.9	77.9	80.0	74	68.9	1	5	292	0.00	29.755 
17:20	77.9	77.9	80.0	73	68.5	0	4	338	0.00	29.755 
17:25	77.7	77.7	79.7	73	68.3	0	3	338	0.00	29.755 
17:30	77.7	77.7	79.7	73	68.3	0	1	338	0.00	29.751 
17:35	77.6	77.6	79.5	73	68.2	0	1	338	0.00	29.751 
17:40	77.6	77.6	79.5	73	68.2	0	2	0	0.00	29.751 
17:45	77.9	77.9	80.0	74	68.9	0	3	248	0.00	29.740 
17:50	78.3	78.3	80.6	73	68.9	0	2	248	0.00	29.740 
17:55	78.6	78.6	81.0	73	69.2	0	1	248	0.00	29.740 
18:00	78.8	78.8	81.2	71	68.6	0	2	248	0.00	29.720 
18:05	78.8	78.8	81.2	71	68.6	0	1	248	0.00	29.720 
18:10	78.8	78.8	81.2	71	68.6	0	2	248	0.00	29.720 
18:15	78.8	78.8	81.2	71	68.6	0	2	248	0.00	29.713 
18:20	78.8	78.8	81.3	72	69.0	0	1	248	0.00	29.713 
18:25	78.6	78.6	80.9	71	68.4	0	2	248	0.00	29.713 
18:30	78.6	78.6	80.9	71	68.4	0	1	248	0.00	29.721 
18:35	78.5	78.5	80.8	72	68.7	0	0	---	0.00	29.721 
18:40	78.5	78.5	80.8	72	68.7	0	0	---	0.00	29.721 
18:45	78.3	78.3	80.6	73	68.9	0	0	---	0.00	29.720 
18:50	78.1	78.1	80.3	73	68.7	0	0	---	0.00	29.720 
18:55	78.1	78.1	80.3	73	68.7	0	1	248	0.00	29.720 
19:00	77.9	77.9	80.0	73	68.5	0	0	---	0.00	29.715 
19:05	77.9	77.9	80.0	73	68.5	0	0	---	0.00	29.715 
19:10	77.9	77.9	80.0	73	68.5	0	1	248	0.00	29.715 
19:15	77.7	77.7	79.7	74	68.7	0	0	---	0.00	29.714 
19:20	77.6	77.6	79.6	74	68.6	0	0	---	0.00	29.714 
19:25	77.4	77.4	79.3	74	68.4	0	1	248	0.00	29.714 
19:30	77.2	77.2	79.0	74	68.3	0	0	---	0.00	29.714 
19:35	77.2	77.2	79.0	75	68.6	0	0	---	0.00	29.714 
19:40	77.0	77.0	78.7	74	68.1	0	0	---	0.00	29.714 
19:45	77.0	77.0	78.7	74	68.1	0	0	---	0.00	29.719 
19:50	77.0	77.0	78.7	74	68.1	0	1	248	0.00	29.719 
19:55	77.0	77.0	78.7	75	68.5	0	0	---	0.00	29.719 
20:00	77.0	77.0	78.7	76	68.8	0	0	---	0.00	29.718 
20:05	76.8	76.8	78.4	76	68.6	0	1	248	0.01	29.718 
20:10	76.7	76.7	78.2	77	68.9	0	1	248	0.00	29.718 
20:15	76.5	76.5	77.9	77	68.7	0	0	---	0.00	29.712 
20:20	76.1	76.1	77.3	78	68.7	0	1	248	0.00	29.712 
20:25	76.0	76.0	77.1	79	69.0	0	0	---	0.00	29.712 
20:30	75.8	75.8	76.8	79	68.8	0	1	248	0.00	29.713 
20:35	75.6	75.6	76.4	80	69.0	0	1	248	0.01	29.713 
20:40	75.4	75.4	76.0	81	69.1	0	1	248	0.00	29.713 
20:45	75.1	75.1	76.0	78	67.8	2	6	270	0.00	29.737 
20:50	74.7	74.7	74.7	77	67.0	1	5	270	0.00	29.737 
20:55	74.4	74.4	74.4	74	65.6	1	4	248	0.00	29.737 
21:00	73.9	73.9	73.9	74	65.1	1	3	248	0.00	29.734 
21:05	73.2	73.2	73.2	75	64.8	1	4	248	0.00	29.734 
21:10	72.3	72.3	72.3	78	65.0	2	6	292	0.01	29.734 
21:15	71.5	71.5	71.5	80	65.0	1	3	292	0.00	29.739 
21:20	71.1	71.1	71.1	81	65.0	0	2	292	0.02	29.739 
21:25	70.8	70.8	70.8	82	65.0	0	2	292	0.01	29.739 
21:30	70.4	70.4	70.4	83	65.0	0	1	292	0.01	29.718 
21:35	69.9	69.9	69.9	84	64.8	0	2	292	0.01	29.718 
21:40	69.6	69.6	69.6	85	64.9	0	2	315	0.01	29.718 
21:45	69.1	69.1	69.1	86	64.7	0	2	315	0.01	29.709 
21:50	68.8	68.8	68.8	87	64.8	0	2	315	0.02	29.709 
21:55	68.4	68.4	68.4	88	64.7	0	2	315	0.01	29.709 
22:00	68.1	68.1	68.1	88	64.4	0	1	315	0.01	29.703 
22:05	67.9	67.9	67.9	89	64.5	1	3	248	0.01	29.703 
22:10	67.9	67.9	67.9	89	64.5	1	4	270	0.01	29.703 
22:15	67.8	67.8	67.8	90	64.8	0	3	270	0.01	29.700 
22:20	67.8	67.8	67.8	91	65.1	1	4	248	0.01	29.700 
22:25	67.6	67.6	67.6	91	64.9	1	3	248	0.02	29.700 
22:30	67.4	67.4	67.4	91	64.7	1	3	248	0.01	29.727 
22:35	67.3	67.3	67.3	92	64.9	1	2	270	0.02	29.727 
22:40	66.9	66.9	66.9	92	64.5	2	5	248	0.01	29.727 
22:45	66.8	66.8	66.8	92	64.4	1	4	270	0.00	29.724 
22:50	66.4	66.4	66.4	92	64.0	1	4	270	0.01	29.724 
22:55	66.3	66.3	66.3	92	63.9	1	5	270	0.00	29.724 
23:00	66.3	66.3	66.3	92	63.9	1	4	292	0.00	29.731 
23:05	66.1	66.1	66.1	93	64.0	1	5	270	0.01	29.731 
23:10	66.1	66.1	66.1	93	64.0	1	6	270	0.00	29.731 
23:15	66.0	66.0	66.0	93	63.9	0	2	270	0.01	29.719 
23:20	66.0	66.0	66.0	93	63.9	0	3	270	0.00	29.719 
23:25	66.0	66.0	66.0	93	63.9	0	2	270	0.01	29.719 
23:30	66.0	66.0	66.0	93	63.9	0	1	270	0.00	29.743 
23:35	66.0	66.0	66.0	93	63.9	0	2	270	0.00	29.743 
23:40	66.0	66.0	66.0	93	63.9	0	2	270	0.01	29.743 
23:45	66.0	66.0	66.0	93	63.9	0	3	270	0.00	29.745 
23:50	66.0	66.0	66.0	94	64.2	1	3	270	0.00	29.745 
23:55	66.1	66.1	66.1	94	64.3	1	3	270	0.01	29.745 

CoCoRaHS
IN-AL-39
A2 Web Hosting
Creative Commons License
GoDaddy
search engine by freefind advanced

loaded 2018-11-17 00:11:49 • last modified 2010-11-18 10:43:29
Privacy PolicyDisclaimer
• wx.awcolley.com is powered by PmWiki v.2002016 •
• all content (unless otherwise noted) © 2018 A W Colley